createdAt,value
2018-12-11T00:01:18.000Z,100912
2018-12-11T00:02:33.000Z,100918
2018-12-11T00:04:33.000Z,100925
2018-12-11T00:06:33.000Z,100929
2018-12-11T00:08:33.000Z,100925
2018-12-11T00:09:33.000Z,100923
2018-12-11T00:11:33.000Z,100921
2018-12-11T00:13:33.000Z,100933
2018-12-11T00:15:33.000Z,100927
2018-12-11T00:16:33.000Z,100927
2018-12-11T00:17:33.000Z,100922
2018-12-11T00:19:33.000Z,100925
2018-12-11T00:21:33.000Z,100924
2018-12-11T00:23:33.000Z,100927
2018-12-11T00:25:33.000Z,100923
2018-12-11T00:27:33.000Z,100925
2018-12-11T00:29:33.000Z,100923
2018-12-11T00:31:33.000Z,100920
2018-12-11T00:32:33.000Z,100919
2018-12-11T00:33:33.000Z,100916
2018-12-11T00:35:33.000Z,100915
2018-12-11T00:37:18.000Z,100917
2018-12-11T00:38:33.000Z,100919
2018-12-11T00:40:33.000Z,100911
2018-12-11T00:42:33.000Z,100918
2018-12-11T00:43:33.000Z,100915
2018-12-11T00:45:33.000Z,100912
2018-12-11T00:47:33.000Z,100909
2018-12-11T00:48:33.000Z,100911
2018-12-11T00:50:33.000Z,100902
2018-12-11T00:52:33.000Z,100912
2018-12-11T00:53:33.000Z,100910
2018-12-11T00:55:33.000Z,100907
2018-12-11T00:57:18.000Z,100900
2018-12-11T00:58:33.000Z,100899
2018-12-11T00:59:33.000Z,100900
2018-12-11T01:01:33.000Z,100900
2018-12-11T01:03:33.000Z,100896
2018-12-11T01:05:33.000Z,100901
2018-12-11T01:06:33.000Z,100905
2018-12-11T01:07:33.000Z,100904
2018-12-11T01:09:33.000Z,100901
2018-12-11T01:11:33.000Z,100905
2018-12-11T01:13:33.000Z,100903
2018-12-11T01:14:33.000Z,100898
2018-12-11T01:15:33.000Z,100901
2018-12-11T01:16:33.000Z,100901
2018-12-11T01:18:18.000Z,100901
2018-12-11T01:19:33.000Z,100903
2018-12-11T01:21:18.000Z,100911
2018-12-11T01:22:33.000Z,100907
2018-12-11T01:24:33.000Z,100914
2018-12-11T01:26:33.000Z,100920
2018-12-11T01:28:33.000Z,100918
2018-12-11T01:30:33.000Z,100920
2018-12-11T01:31:33.000Z,100920
2018-12-11T01:33:33.000Z,100923
2018-12-11T01:35:33.000Z,100921
2018-12-11T01:37:03.000Z,100923
2018-12-11T01:38:33.000Z,100921
2018-12-11T01:40:03.000Z,100924
2018-12-11T01:41:18.000Z,100921
2018-12-11T01:43:33.000Z,100915
2018-12-11T01:44:33.000Z,100914
2018-12-11T01:46:33.000Z,100921
2018-12-11T01:47:33.000Z,100925
2018-12-11T01:49:33.000Z,100920
2018-12-11T01:51:18.000Z,100929
2018-12-11T01:52:33.000Z,100929
2018-12-11T01:54:33.000Z,100929
2018-12-11T01:55:33.000Z,100934
2018-12-11T01:56:33.000Z,100935
2018-12-11T01:58:33.000Z,100929
2018-12-11T01:59:33.000Z,100929
2018-12-11T02:01:33.000Z,100933
2018-12-11T02:02:33.000Z,100933
2018-12-11T02:03:33.000Z,100930
2018-12-11T02:05:33.000Z,100939
2018-12-11T02:07:33.000Z,100927
2018-12-11T02:09:18.000Z,100939
2018-12-11T02:10:18.000Z,100934
2018-12-11T02:11:33.000Z,100937
2018-12-11T02:13:33.000Z,100927
2018-12-11T02:14:33.000Z,100939
2018-12-11T02:16:33.000Z,100925
2018-12-11T02:18:33.000Z,100929
2018-12-11T02:20:33.000Z,100918
2018-12-11T02:22:33.000Z,100914
2018-12-11T02:23:33.000Z,100916
2018-12-11T02:25:33.000Z,100916
2018-12-11T02:27:18.000Z,100914
2018-12-11T02:28:33.000Z,100919
2018-12-11T02:30:33.000Z,100921
2018-12-11T02:31:33.000Z,100925
2018-12-11T02:32:33.000Z,100929
2018-12-11T02:34:33.000Z,100926
2018-12-11T02:36:33.000Z,100929
2018-12-11T02:37:33.000Z,100926
2018-12-11T02:39:33.000Z,100927
2018-12-11T02:40:33.000Z,100928
2018-12-11T02:42:34.000Z,100935
2018-12-11T02:44:19.000Z,100932
2018-12-11T02:46:18.000Z,100926
2018-12-11T02:47:33.000Z,100923
2018-12-11T02:49:33.000Z,100924
2018-12-11T02:51:18.000Z,100921
2018-12-11T02:52:33.000Z,100929
2018-12-11T02:54:33.000Z,100926
2018-12-11T02:55:33.000Z,100921
2018-12-11T02:56:33.000Z,100930
2018-12-11T02:57:34.000Z,100926
2018-12-11T02:59:18.000Z,100933
2018-12-11T03:00:33.000Z,100931
2018-12-11T03:02:33.000Z,100937
2018-12-11T03:04:33.000Z,100931
2018-12-11T03:06:33.000Z,100921
2018-12-11T03:08:33.000Z,100928
2018-12-11T03:10:33.000Z,100931
2018-12-11T03:11:33.000Z,100932
2018-12-11T03:13:33.000Z,100928
2018-12-11T03:15:33.000Z,100929
2018-12-11T03:16:33.000Z,100931
2018-12-11T03:18:18.000Z,100929
2018-12-11T03:19:33.000Z,100931
2018-12-11T03:21:33.000Z,100933
2018-12-11T03:23:33.000Z,100929
2018-12-11T03:25:33.000Z,100929
2018-12-11T03:27:33.000Z,100931
2018-12-11T03:29:33.000Z,100932
2018-12-11T03:30:33.000Z,100935
2018-12-11T03:32:33.000Z,100929
2018-12-11T03:34:18.000Z,100929
2018-12-11T03:35:33.000Z,100923
2018-12-11T03:37:33.000Z,100916
2018-12-11T03:39:33.000Z,100917
2018-12-11T03:41:33.000Z,100918
2018-12-11T03:43:33.000Z,100912
2018-12-11T03:45:18.000Z,100917
2018-12-11T03:46:18.000Z,100918
2018-12-11T03:47:33.000Z,100914
2018-12-11T03:49:18.000Z,100915
2018-12-11T03:50:33.000Z,100915
2018-12-11T03:52:18.000Z,100915
2018-12-11T03:54:33.000Z,100918
2018-12-11T03:55:33.000Z,100915
2018-12-11T03:57:33.000Z,100919
2018-12-11T03:59:33.000Z,100916
2018-12-11T04:01:33.000Z,100916
2018-12-11T04:02:33.000Z,100913
2018-12-11T04:04:18.000Z,100922
2018-12-11T04:05:33.000Z,100920
2018-12-11T04:07:33.000Z,100927
2018-12-11T04:08:34.000Z,100928
2018-12-11T04:10:18.000Z,100925
2018-12-11T04:11:34.000Z,100925
2018-12-11T04:13:18.000Z,100931
2018-12-11T04:14:34.000Z,100932
2018-12-11T04:16:34.000Z,100927
2018-12-11T04:17:34.000Z,100924
2018-12-11T04:19:34.000Z,100916
2018-12-11T04:20:34.000Z,100914
2018-12-11T04:21:34.000Z,100912
2018-12-11T04:22:34.000Z,100917
2018-12-11T04:24:34.000Z,100911
2018-12-11T04:25:34.000Z,100913
2018-12-11T04:27:34.000Z,100916
2018-12-11T04:29:34.000Z,100912
2018-12-11T04:30:34.000Z,100918
2018-12-11T04:32:18.000Z,100911
2018-12-11T04:33:34.000Z,100921
2018-12-11T04:35:34.000Z,100918
2018-12-11T04:36:34.000Z,100915
2018-12-11T04:38:34.000Z,100920
2018-12-11T04:40:34.000Z,100917
2018-12-11T04:42:34.000Z,100912
2018-12-11T04:43:34.000Z,100915
2018-12-11T04:45:34.000Z,100914
2018-12-11T04:47:34.000Z,100922
2018-12-11T04:49:34.000Z,100918
2018-12-11T04:51:18.000Z,100917
2018-12-11T04:52:34.000Z,100922
2018-12-11T04:54:34.000Z,100925
2018-12-11T04:56:34.000Z,100915
2018-12-11T04:58:34.000Z,100904
2018-12-11T05:00:34.000Z,100911
2018-12-11T05:01:34.000Z,100920
2018-12-11T05:03:34.000Z,100922
2018-12-11T05:05:34.000Z,100921
2018-12-11T05:07:34.000Z,100918
2018-12-11T05:08:34.000Z,100918
2018-12-11T05:10:18.000Z,100915
2018-12-11T05:11:34.000Z,100923
2018-12-11T05:12:33.000Z,100921
2018-12-11T05:14:33.000Z,100919
2018-12-11T05:15:33.000Z,100916
2018-12-11T05:17:33.000Z,100913
2018-12-11T05:19:33.000Z,100916
2018-12-11T05:21:33.000Z,100912
2018-12-11T05:22:33.000Z,100920
2018-12-11T05:24:33.000Z,100921
2018-12-11T05:26:33.000Z,100910
2018-12-11T05:28:18.000Z,100908
2018-12-11T05:29:33.000Z,100906
2018-12-11T05:30:33.000Z,100916
2018-12-11T05:32:33.000Z,100914
2018-12-11T05:33:33.000Z,100919
2018-12-11T05:35:33.000Z,100920
2018-12-11T05:36:33.000Z,100914
2018-12-11T05:38:33.000Z,100916
2018-12-11T05:40:33.000Z,100918
2018-12-11T05:42:33.000Z,100918
2018-12-11T05:44:33.000Z,100920
2018-12-11T05:45:33.000Z,100915
2018-12-11T05:47:33.000Z,100915
2018-12-11T05:48:33.000Z,100918
2018-12-11T05:49:33.000Z,100917
2018-12-11T05:51:33.000Z,100920
2018-12-11T05:52:33.000Z,100918
2018-12-11T05:54:33.000Z,100917
2018-12-11T05:55:33.000Z,100918
2018-12-11T05:57:33.000Z,100924
2018-12-11T05:59:18.000Z,100921
2018-12-11T06:00:33.000Z,100920
2018-12-11T06:01:33.000Z,100921
2018-12-11T06:03:33.000Z,100926
2018-12-11T06:04:33.000Z,100921
2018-12-11T06:06:33.000Z,100922
2018-12-11T06:08:33.000Z,100923
2018-12-11T06:10:33.000Z,100928
2018-12-11T06:12:33.000Z,100925
2018-12-11T06:14:33.000Z,100914
2018-12-11T06:16:18.000Z,100918
2018-12-11T06:17:33.000Z,100922
2018-12-11T06:19:33.000Z,100923
2018-12-11T06:21:33.000Z,100924
2018-12-11T06:23:33.000Z,100926
2018-12-11T06:25:03.000Z,100924
2018-12-11T06:26:33.000Z,100928
2018-12-11T06:27:33.000Z,100920
2018-12-11T06:29:33.000Z,100922
2018-12-11T06:31:18.000Z,100922
2018-12-11T06:32:18.000Z,100912
2018-12-11T06:34:33.000Z,100914
2018-12-11T06:35:33.000Z,100915
2018-12-11T06:37:18.000Z,100908
2018-12-11T06:38:33.000Z,100916
2018-12-11T06:39:33.000Z,100918
2018-12-11T06:41:18.000Z,100922
2018-12-11T06:42:33.000Z,100917
2018-12-11T06:44:33.000Z,100916
2018-12-11T06:45:33.000Z,100928
2018-12-11T06:46:33.000Z,100919
2018-12-11T06:48:33.000Z,100915
2018-12-11T06:49:33.000Z,100919
2018-12-11T06:51:33.000Z,100923
2018-12-11T06:53:18.000Z,100929
2018-12-11T06:54:33.000Z,100921
2018-12-11T06:56:18.000Z,100921
2018-12-11T06:57:33.000Z,100919
2018-12-11T06:59:33.000Z,100927
2018-12-11T07:01:33.000Z,100932
2018-12-11T07:03:18.000Z,100933
2018-12-11T07:04:33.000Z,100932
2018-12-11T07:06:18.000Z,100938
2018-12-11T07:07:33.000Z,100934
2018-12-11T07:08:33.000Z,100932
2018-12-11T07:10:33.000Z,100932
2018-12-11T07:12:33.000Z,100930
2018-12-11T07:14:33.000Z,100933
2018-12-11T07:16:33.000Z,100931
2018-12-11T07:18:18.000Z,100940
2018-12-11T07:19:33.000Z,100937
2018-12-11T07:20:33.000Z,100939
2018-12-11T07:22:33.000Z,100940
2018-12-11T07:24:33.000Z,100938
2018-12-11T07:26:18.000Z,100948
2018-12-11T07:27:33.000Z,100941
2018-12-11T07:29:33.000Z,100938
2018-12-11T07:31:33.000Z,100949
2018-12-11T07:33:18.000Z,100946
2018-12-11T07:35:33.000Z,100945
2018-12-11T07:37:33.000Z,100946
2018-12-11T07:39:33.000Z,100939
2018-12-11T07:40:33.000Z,100946
2018-12-11T07:42:33.000Z,100951
2018-12-11T07:44:33.000Z,100957
2018-12-11T07:46:33.000Z,100960
2018-12-11T07:47:33.000Z,100957
2018-12-11T07:49:33.000Z,100957
2018-12-11T07:51:33.000Z,100952
2018-12-11T07:53:03.000Z,100960
2018-12-11T07:54:33.000Z,100970
2018-12-11T07:55:33.000Z,100966
2018-12-11T07:57:18.000Z,100968
2018-12-11T07:58:33.000Z,100962
2018-12-11T07:59:33.000Z,100952
2018-12-11T08:01:18.000Z,100956
2018-12-11T08:02:33.000Z,100960
2018-12-11T08:04:33.000Z,100959
2018-12-11T08:06:33.000Z,100961
2018-12-11T08:08:33.000Z,100965
2018-12-11T08:09:33.000Z,100957
2018-12-11T08:11:18.000Z,100958
2018-12-11T08:13:02.000Z,100955
2018-12-11T08:14:33.000Z,100961
2018-12-11T08:16:33.000Z,100956
2018-12-11T08:17:33.000Z,100958
2018-12-11T08:19:33.000Z,100951
2018-12-11T08:21:33.000Z,100954
2018-12-11T08:23:19.000Z,100955
2018-12-11T08:24:34.000Z,100954
2018-12-11T08:25:34.000Z,100958
2018-12-11T08:27:34.000Z,100958
2018-12-11T08:29:34.000Z,100954
2018-12-11T08:31:34.000Z,100955
2018-12-11T08:33:18.000Z,100964
2018-12-11T08:34:34.000Z,100960
2018-12-11T08:35:34.000Z,100957
2018-12-11T08:36:34.000Z,100958
2018-12-11T08:38:34.000Z,100956
2018-12-11T08:39:34.000Z,100952
2018-12-11T08:41:19.000Z,100948
2018-12-11T08:43:34.000Z,100948
2018-12-11T08:45:34.000Z,100952
2018-12-11T08:47:34.000Z,100958
2018-12-11T08:49:18.000Z,100957
2018-12-11T08:50:34.000Z,100958
2018-12-11T08:51:34.000Z,100961
2018-12-11T08:53:34.000Z,100953
2018-12-11T08:55:34.000Z,100958
2018-12-11T08:56:34.000Z,100959
2018-12-11T08:58:18.000Z,100959
2018-12-11T09:00:33.000Z,100958
2018-12-11T09:01:34.000Z,100959
2018-12-11T09:03:34.000Z,100953
2018-12-11T09:05:34.000Z,100960
2018-12-11T09:06:34.000Z,100953
2018-12-11T09:08:34.000Z,100957
2018-12-11T09:10:34.000Z,100955
2018-12-11T09:12:18.000Z,100962
2018-12-11T09:13:34.000Z,100957
2018-12-11T09:15:34.000Z,100959
2018-12-11T09:17:04.000Z,100963
2018-12-11T09:18:34.000Z,100963
2018-12-11T09:19:34.000Z,100969
2018-12-11T09:21:34.000Z,100968
2018-12-11T09:23:34.000Z,100968
2018-12-11T09:24:34.000Z,100976
2018-12-11T09:25:34.000Z,100973
2018-12-11T09:27:34.000Z,100969
2018-12-11T09:28:34.000Z,100973
2018-12-11T09:29:34.000Z,100973
2018-12-11T09:31:18.000Z,100982
2018-12-11T09:32:34.000Z,100975
2018-12-11T09:33:34.000Z,100976
2018-12-11T09:35:34.000Z,100980
2018-12-11T09:37:34.000Z,100973
2018-12-11T09:38:34.000Z,100974
2018-12-11T09:40:19.000Z,100980
2018-12-11T09:42:22.000Z,100978
2018-12-11T09:44:34.000Z,100984
2018-12-11T09:45:34.000Z,100975
2018-12-11T09:46:34.000Z,100978
2018-12-11T09:48:34.000Z,100987
2018-12-11T09:50:34.000Z,100987
2018-12-11T09:52:03.000Z,100986
2018-12-11T09:53:34.000Z,100988
2018-12-11T09:54:34.000Z,100984
2018-12-11T09:56:19.000Z,100981
2018-12-11T09:58:34.000Z,100985
2018-12-11T10:00:19.000Z,100984
2018-12-11T10:02:18.000Z,100992
2018-12-11T10:03:34.000Z,100987
2018-12-11T10:05:34.000Z,100988
2018-12-11T10:07:34.000Z,100986
2018-12-11T10:09:34.000Z,100989
2018-12-11T10:11:18.000Z,100997
2018-12-11T10:12:34.000Z,100987
2018-12-11T10:13:34.000Z,100989
2018-12-11T10:15:18.000Z,100996
2018-12-11T10:16:34.000Z,100991
2018-12-11T10:17:34.000Z,100990
2018-12-11T10:19:34.000Z,100996
2018-12-11T10:21:34.000Z,100987
2018-12-11T10:22:34.000Z,100988
2018-12-11T10:23:34.000Z,100989
2018-12-11T10:25:34.000Z,100989
2018-12-11T10:26:34.000Z,100987
2018-12-11T10:28:34.000Z,100990
2018-12-11T10:30:18.000Z,100989
2018-12-11T10:31:33.000Z,100988
2018-12-11T10:33:33.000Z,100992
2018-12-11T10:35:33.000Z,100987
2018-12-11T10:36:33.000Z,100992
2018-12-11T10:38:33.000Z,100988
2018-12-11T10:40:33.000Z,100977
2018-12-11T10:41:33.000Z,100981
2018-12-11T10:42:33.000Z,100979
2018-12-11T10:44:33.000Z,100982
2018-12-11T10:46:33.000Z,100976
2018-12-11T10:47:33.000Z,100981
2018-12-11T10:49:33.000Z,100977
2018-12-11T10:51:33.000Z,100978
2018-12-11T10:53:33.000Z,100980
2018-12-11T10:54:33.000Z,100970
2018-12-11T10:55:33.000Z,100978
2018-12-11T10:57:18.000Z,100983
2018-12-11T10:58:33.000Z,100981
2018-12-11T10:59:33.000Z,100981
2018-12-11T11:10:45.000Z,100986
2018-12-11T11:12:31.000Z,100985
2018-12-11T11:14:31.000Z,100991
2018-12-11T11:15:31.000Z,100986
2018-12-11T11:17:31.000Z,100982
2018-12-11T11:19:31.000Z,100985
2018-12-11T11:21:00.000Z,100978
2018-12-11T11:22:31.000Z,100985
2018-12-11T11:24:31.000Z,100986
2018-12-11T11:26:31.000Z,100980
2018-12-11T11:27:31.000Z,100975
2018-12-11T11:29:31.000Z,100979
2018-12-11T11:31:31.000Z,100983
2018-12-11T11:33:31.000Z,100982
2018-12-11T11:35:31.000Z,100979
2018-12-11T11:36:31.000Z,100981
2018-12-11T11:38:31.000Z,100976
2018-12-11T11:40:31.000Z,100978
2018-12-11T11:42:31.000Z,100970
2018-12-11T11:43:31.000Z,100968
2018-12-11T11:45:31.000Z,100974
2018-12-11T11:47:31.000Z,100966
2018-12-11T11:48:31.000Z,100965
2018-12-11T11:50:31.000Z,100973
2018-12-11T11:52:00.000Z,100978
2018-12-11T11:53:31.000Z,100968
2018-12-11T11:55:31.000Z,100967
2018-12-11T11:57:31.000Z,100963
2018-12-11T11:59:31.000Z,100965
2018-12-11T12:00:31.000Z,100969
2018-12-11T12:02:31.000Z,100966
2018-12-11T12:04:31.000Z,100969
2018-12-11T12:06:16.000Z,100961
2018-12-11T12:08:15.000Z,100956
2018-12-11T12:09:31.000Z,100953
2018-12-11T12:10:31.000Z,100949
2018-12-11T12:11:31.000Z,100957
2018-12-11T12:13:31.000Z,100946
2018-12-11T12:15:16.000Z,100951
2018-12-11T12:17:31.000Z,100957
2018-12-11T12:19:31.000Z,100950
2018-12-11T12:20:31.000Z,100953
2018-12-11T12:22:31.000Z,100955
2018-12-11T12:23:31.000Z,100956
2018-12-11T12:25:15.000Z,100956
2018-12-11T12:26:31.000Z,100957
2018-12-11T12:28:31.000Z,100956
2018-12-11T12:30:00.000Z,100950
2018-12-11T12:31:31.000Z,100957
2018-12-11T12:32:31.000Z,100957
2018-12-11T12:34:31.000Z,100966
2018-12-11T12:35:31.000Z,100960
2018-12-11T12:37:31.000Z,100967
2018-12-11T12:39:31.000Z,100955
2018-12-11T12:40:31.000Z,100961
2018-12-11T12:42:31.000Z,100958
2018-12-11T12:44:31.000Z,100965
2018-12-11T12:46:31.000Z,100965
2018-12-11T12:48:31.000Z,100964
2018-12-11T12:49:31.000Z,100968
2018-12-11T12:51:31.000Z,100961
2018-12-11T12:53:31.000Z,100961
2018-12-11T12:55:31.000Z,100961
2018-12-11T12:57:16.000Z,100961
2018-12-11T12:58:31.000Z,100961
2018-12-11T13:00:31.000Z,100963
2018-12-11T13:02:31.000Z,100961
2018-12-11T13:04:31.000Z,100965
2018-12-11T13:05:31.000Z,100956
2018-12-11T13:07:31.000Z,100955
2018-12-11T13:08:31.000Z,100960
2018-12-11T13:09:31.000Z,100961
2018-12-11T13:11:31.000Z,100959
2018-12-11T13:13:31.000Z,100964
2018-12-11T13:15:01.000Z,100961
2018-12-11T13:16:31.000Z,100965
2018-12-11T13:17:31.000Z,100965
2018-12-11T13:19:16.000Z,100970
2018-12-11T13:20:31.000Z,100962
2018-12-11T13:21:31.000Z,100971
2018-12-11T13:23:31.000Z,100965
2018-12-11T13:24:31.000Z,100966
2018-12-11T13:25:31.000Z,100964
2018-12-11T13:27:31.000Z,100967
2018-12-11T13:28:31.000Z,100962
2018-12-11T13:30:16.000Z,100961
2018-12-11T13:31:31.000Z,100964
2018-12-11T13:33:31.000Z,100968
2018-12-11T13:35:31.000Z,100970
2018-12-11T13:37:31.000Z,100966
2018-12-11T13:39:31.000Z,100968
2018-12-11T13:40:31.000Z,100965
2018-12-11T13:42:31.000Z,100969
2018-12-11T13:43:31.000Z,100973
2018-12-11T13:45:31.000Z,100969
2018-12-11T13:47:31.000Z,100970
2018-12-11T13:49:16.000Z,100965
2018-12-11T13:50:31.000Z,100972
2018-12-11T13:51:31.000Z,100977
2018-12-11T13:53:31.000Z,100966
2018-12-11T13:54:31.000Z,100967
2018-12-11T13:56:31.000Z,100970
2018-12-11T13:58:16.000Z,100968
2018-12-11T13:59:31.000Z,100971
2018-12-11T14:00:31.000Z,100968
2018-12-11T14:02:31.000Z,100971
2018-12-11T14:04:31.000Z,100974
2018-12-11T14:06:31.000Z,100974
2018-12-11T14:08:01.000Z,100970
2018-12-11T14:09:31.000Z,100974
2018-12-11T14:10:31.000Z,100976
2018-12-11T14:12:31.000Z,100977
2018-12-11T14:13:31.000Z,100976
2018-12-11T14:15:31.000Z,100972
2018-12-11T14:17:31.000Z,100975
2018-12-11T14:18:31.000Z,100970
2018-12-11T14:20:31.000Z,100969
2018-12-11T14:21:31.000Z,100968
2018-12-11T14:23:31.000Z,100970
2018-12-11T14:25:16.000Z,100963
2018-12-11T14:26:31.000Z,100968
2018-12-11T14:28:31.000Z,100973
2018-12-11T14:30:31.000Z,100974
2018-12-11T14:31:31.000Z,100975
2018-12-11T14:33:16.000Z,100975
2018-12-11T14:34:31.000Z,100972
2018-12-11T14:35:31.000Z,100975
2018-12-11T14:37:31.000Z,100972
2018-12-11T14:39:31.000Z,100974
2018-12-11T14:40:31.000Z,100969
2018-12-11T14:41:31.000Z,100971
2018-12-11T14:42:31.000Z,100978
2018-12-11T14:44:31.000Z,100968
2018-12-11T14:46:31.000Z,100973
2018-12-11T14:47:31.000Z,100976
2018-12-11T14:48:31.000Z,100981
2018-12-11T14:50:16.000Z,100974
2018-12-11T14:51:31.000Z,100973
2018-12-11T14:53:31.000Z,100968
2018-12-11T14:54:31.000Z,100967
2018-12-11T14:56:31.000Z,100966
2018-12-11T14:57:31.000Z,100970
2018-12-11T14:59:31.000Z,100976
2018-12-11T15:00:31.000Z,100970
2018-12-11T15:02:16.000Z,100974
2018-12-11T15:03:31.000Z,100976
2018-12-11T15:04:31.000Z,100983
2018-12-11T15:06:31.000Z,100976
2018-12-11T15:08:31.000Z,100981
2018-12-11T15:10:31.000Z,100988
2018-12-11T15:12:31.000Z,100976
2018-12-11T15:13:31.000Z,100974
2018-12-11T15:15:31.000Z,100977
2018-12-11T15:17:31.000Z,100969
2018-12-11T15:19:31.000Z,100970
2018-12-11T15:20:31.000Z,100965
2018-12-11T15:22:31.000Z,100976
2018-12-11T15:24:16.000Z,100961
2018-12-11T15:25:31.000Z,100971
2018-12-11T15:27:31.000Z,100965
2018-12-11T15:29:31.000Z,100966
2018-12-11T15:30:31.000Z,100959
2018-12-11T15:32:31.000Z,100956
2018-12-11T15:33:31.000Z,100962
2018-12-11T15:35:01.000Z,100959
2018-12-11T15:36:31.000Z,100960
2018-12-11T15:38:31.000Z,100973
2018-12-11T15:39:31.000Z,100973
2018-12-11T15:41:31.000Z,100971
2018-12-11T15:43:16.000Z,100973
2018-12-11T15:44:31.000Z,100972
2018-12-11T15:46:31.000Z,100975
2018-12-11T15:47:31.000Z,100972
2018-12-11T15:49:16.000Z,100975
2018-12-11T15:51:31.000Z,100975
2018-12-11T15:53:31.000Z,100977
2018-12-11T15:55:31.000Z,100982
2018-12-11T15:57:31.000Z,100984
2018-12-11T15:58:31.000Z,100974
2018-12-11T16:00:31.000Z,100981
2018-12-11T16:02:31.000Z,100979
2018-12-11T16:03:31.000Z,100980
2018-12-11T16:05:31.000Z,100989
2018-12-11T16:07:31.000Z,100976
2018-12-11T16:09:16.000Z,100978
2018-12-11T16:10:31.000Z,100970
2018-12-11T16:12:31.000Z,100979
2018-12-11T16:13:31.000Z,100983
2018-12-11T16:15:31.000Z,100990
2018-12-11T16:17:31.000Z,100986
2018-12-11T16:18:31.000Z,100995
2018-12-11T16:20:31.000Z,100992
2018-12-11T16:21:31.000Z,100995
2018-12-11T16:22:31.000Z,100993
2018-12-11T16:24:31.000Z,101003
2018-12-11T16:26:31.000Z,101003
2018-12-11T16:28:31.000Z,100996
2018-12-11T16:29:31.000Z,100999
2018-12-11T16:30:31.000Z,100991
2018-12-11T16:32:31.000Z,100994
2018-12-11T16:34:16.000Z,101000
2018-12-11T16:35:16.000Z,100993
2018-12-11T16:36:31.000Z,100999
2018-12-11T16:38:31.000Z,100996
2018-12-11T16:40:01.000Z,100999
2018-12-11T16:41:31.000Z,101006
2018-12-11T16:42:31.000Z,101007
2018-12-11T16:43:31.000Z,101009
2018-12-11T16:45:31.000Z,101004
2018-12-11T16:46:31.000Z,101007
2018-12-11T16:48:16.000Z,101004
2018-12-11T16:49:31.000Z,101004
2018-12-11T16:51:31.000Z,101009
2018-12-11T16:52:31.000Z,101006
2018-12-11T16:53:31.000Z,101005
2018-12-11T16:55:31.000Z,101001
2018-12-11T16:56:31.000Z,101002
2018-12-11T16:58:31.000Z,100997
2018-12-11T17:00:31.000Z,101000
2018-12-11T17:02:31.000Z,100998
2018-12-11T17:03:31.000Z,101003
2018-12-11T17:05:31.000Z,101004
2018-12-11T17:07:31.000Z,101005
2018-12-11T17:09:31.000Z,101011
2018-12-11T17:11:31.000Z,101014
2018-12-11T17:12:31.000Z,101016
2018-12-11T17:14:31.000Z,101019
2018-12-11T17:16:31.000Z,101018
2018-12-11T17:17:31.000Z,101014
2018-12-11T17:18:31.000Z,101013
2018-12-11T17:20:15.000Z,101013
2018-12-11T17:21:31.000Z,101016
2018-12-11T17:23:31.000Z,101019
2018-12-11T17:24:31.000Z,101014
2018-12-11T17:26:31.000Z,101018
2018-12-11T17:27:31.000Z,101014
2018-12-11T17:28:31.000Z,101017
2018-12-11T17:29:31.000Z,101017
2018-12-11T17:31:31.000Z,101023
2018-12-11T17:32:31.000Z,101021
2018-12-11T17:34:31.000Z,101028
2018-12-11T17:36:31.000Z,101025
2018-12-11T17:38:31.000Z,101034
2018-12-11T17:39:31.000Z,101027
2018-12-11T17:41:31.000Z,101027
2018-12-11T17:43:31.000Z,101029
2018-12-11T17:45:15.000Z,101037
2018-12-11T17:46:31.000Z,101034
2018-12-11T17:48:15.000Z,101037
2018-12-11T17:49:31.000Z,101032
2018-12-11T17:50:31.000Z,101039
2018-12-11T17:51:31.000Z,101038
2018-12-11T17:53:31.000Z,101040
2018-12-11T17:54:31.000Z,101039
2018-12-11T17:56:15.000Z,101041
2018-12-11T17:57:31.000Z,101038
2018-12-11T17:58:31.000Z,101041
2018-12-11T18:00:31.000Z,101042
2018-12-11T18:01:31.000Z,101042
2018-12-11T18:03:16.000Z,101043
2018-12-11T18:04:31.000Z,101045
2018-12-11T18:06:31.000Z,101041
2018-12-11T18:08:31.000Z,101037
2018-12-11T18:10:31.000Z,101035
2018-12-11T18:12:31.000Z,101037
2018-12-11T18:14:31.000Z,101043
2018-12-11T18:16:31.000Z,101039
2018-12-11T18:18:31.000Z,101041
2018-12-11T18:20:31.000Z,101042
2018-12-11T18:21:31.000Z,101040
2018-12-11T18:22:31.000Z,101041
2018-12-11T18:24:31.000Z,101040
2018-12-11T18:26:31.000Z,101042
2018-12-11T18:28:31.000Z,101042
2018-12-11T18:29:31.000Z,101040
2018-12-11T18:31:31.000Z,101042
2018-12-11T18:33:31.000Z,101041
2018-12-11T18:35:31.000Z,101049
2018-12-11T18:37:31.000Z,101055
2018-12-11T18:39:31.000Z,101053
2018-12-11T18:41:31.000Z,101047
2018-12-11T18:43:01.000Z,101046
2018-12-11T18:44:31.000Z,101050
2018-12-11T18:46:31.000Z,101051
2018-12-11T18:48:31.000Z,101051
2018-12-11T18:50:16.000Z,101056
2018-12-11T18:52:31.000Z,101069
2018-12-11T18:54:31.000Z,101064
2018-12-11T18:56:31.000Z,101063
2018-12-11T18:58:31.000Z,101059
2018-12-11T19:00:31.000Z,101060
2018-12-11T19:02:31.000Z,101055
2018-12-11T19:03:31.000Z,101054
2018-12-11T19:04:31.000Z,101054
2018-12-11T19:05:31.000Z,101059
2018-12-11T19:07:31.000Z,101057
2018-12-11T19:09:05.000Z,101048
2018-12-11T19:10:31.000Z,101050
2018-12-11T19:12:15.000Z,101053
2018-12-11T19:13:31.000Z,101051
2018-12-11T19:14:31.000Z,101051
2018-12-11T19:16:15.000Z,101050
2018-12-11T19:17:31.000Z,101051
2018-12-11T19:18:31.000Z,101054
2018-12-11T19:20:31.000Z,101050
2018-12-11T19:22:15.000Z,101052
2018-12-11T19:23:31.000Z,101065
2018-12-11T19:24:31.000Z,101056
2018-12-11T19:25:31.000Z,101057
2018-12-11T19:27:31.000Z,101055
2018-12-11T19:29:31.000Z,101053
2018-12-11T19:30:31.000Z,101053
2018-12-11T19:31:31.000Z,101057
2018-12-11T19:32:31.000Z,101057
2018-12-11T19:34:31.000Z,101053
2018-12-11T19:36:31.000Z,101053
2018-12-11T19:37:31.000Z,101054
2018-12-11T19:39:00.000Z,101054
2018-12-11T19:40:01.000Z,101050
2018-12-11T19:41:31.000Z,101050
2018-12-11T19:43:01.000Z,101053
2018-12-11T19:44:16.000Z,101060
2018-12-11T19:45:31.000Z,101060
2018-12-11T19:46:31.000Z,101056
2018-12-11T19:48:00.000Z,101059
2018-12-11T19:49:31.000Z,101058
2018-12-11T19:50:31.000Z,101060
2018-12-11T19:52:31.000Z,101046
2018-12-11T19:54:15.000Z,101052
2018-12-11T19:55:31.000Z,101054
2018-12-11T19:57:00.000Z,101051
2018-12-11T19:58:31.000Z,101048
2018-12-11T20:00:15.000Z,101053
2018-12-11T20:01:31.000Z,101047
2018-12-11T20:03:31.000Z,101054
2018-12-11T20:05:31.000Z,101049
2018-12-11T20:07:31.000Z,101052
2018-12-11T20:08:31.000Z,101052
2018-12-11T20:09:31.000Z,101051
2018-12-11T20:11:31.000Z,101050